Time;durP1;ratioP1;P1;durP2;ratioP2;P2;SDS_P1;SDS_P2;PMS_P1;PMS_P2;Temp;Humidity;BMP_temperature;BMP_pressure;BME280_temperature;BME280_humidity;BME280_pressure;Samples;Min_cycle;Max_cycle;Signal;HPM_P1;HPM_P2
2022/12/12 00:01:33;;;;;;;42.50;21.70;;;-0.80;8.20;;;;;;7392809;19;20017;-74
2022/12/12 00:04:04;;;;;;;41.90;22.00;;;-0.90;7.90;;;;;;7393629;19;20032;-75
2022/12/12 00:06:34;;;;;;;43.78;22.88;;;-0.80;8.20;;;;;;7392602;19;20007;-74
2022/12/12 00:09:08;;;;;;;42.95;21.35;;;-0.80;7.90;;;;;;7392082;19;20469;-76
2022/12/12 00:11:38;;;;;;;44.57;21.47;;;-0.90;6.70;;;;;;7390946;19;20018;-76
2022/12/12 00:14:08;;;;;;;42.90;21.63;;;-1.00;6.20;;;;;;7392678;19;20351;-75
2022/12/12 00:16:38;;;;;;;43.67;22.02;;;-1.00;6.70;;;;;;7392923;19;20010;-75
2022/12/12 00:19:08;;;;;;;43.45;21.45;;;-1.00;6.80;;;;;;7390067;19;20482;-73
2022/12/12 00:21:38;;;;;;;44.08;22.60;;;-1.00;6.60;;;;;;7392054;19;20485;-75
2022/12/12 00:24:10;;;;;;;46.45;21.98;;;-1.10;7.70;;;;;;7392771;19;20010;-76
2022/12/12 00:26:40;;;;;;;43.65;22.80;;;-1.00;8.60;;;;;;7392267;19;20074;-75
2022/12/12 00:29:10;;;;;;;45.67;22.55;;;-1.00;8.00;;;;;;7391745;19;20082;-75
2022/12/12 00:31:41;;;;;;;43.00;21.85;;;-0.90;8.10;;;;;;7390975;19;20102;-74
2022/12/12 00:34:10;;;;;;;46.70;21.10;;;-1.00;7.00;;;;;;7393456;19;20007;-75
2022/12/12 00:36:41;;;;;;;37.65;21.60;;;-1.00;7.20;;;;;;7392287;19;20010;-76
2022/12/12 00:39:13;;;;;;;43.42;22.73;;;-1.00;7.90;;;;;;7392459;19;20015;-75
2022/12/12 00:41:47;;;;;;;39.92;21.90;;;-1.10;8.70;;;;;;7392515;19;20002;-76
2022/12/12 00:44:18;;;;;;;42.08;22.20;;;-1.00;8.70;;;;;;7393430;19;20007;-75
2022/12/12 00:46:47;;;;;;;45.17;22.40;;;-1.00;7.80;;;;;;7392010;19;20007;-75
2022/12/12 00:49:17;;;;;;;41.88;22.38;;;-1.00;7.20;;;;;;7394935;19;20039;-76
2022/12/12 00:51:47;;;;;;;37.95;19.75;;;-1.00;7.10;;;;;;7396656;19;20014;-75
2022/12/12 00:54:19;;;;;;;43.35;20.75;;;-1.00;7.50;;;;;;7398266;19;20462;-75
2022/12/12 00:56:49;;;;;;;39.50;20.00;;;-1.00;5.10;;;;;;7399373;19;20027;-75
2022/12/12 00:59:20;;;;;;;38.92;20.17;;;-0.90;4.70;;;;;;7397067;19;20014;-75
2022/12/12 01:01:50;;;;;;;39.65;19.80;;;-0.90;3.60;;;;;;7398953;19;20009;-76
2022/12/12 01:04:19;;;;;;;38.70;19.75;;;-0.90;5.20;;;;;;7397036;19;20018;-75
2022/12/12 01:06:49;;;;;;;38.65;19.88;;;-0.90;4.70;;;;;;7399033;19;20013;-74
2022/12/12 01:09:22;;;;;;;39.00;19.75;;;-0.90;4.50;;;;;;7396238;19;20014;-75
2022/12/12 01:11:52;;;;;;;40.72;20.83;;;-0.90;4.30;;;;;;7396979;19;20025;-74
2022/12/12 01:14:21;;;;;;;42.50;20.52;;;-0.90;4.20;;;;;;7398092;19;20480;-76
2022/12/12 01:16:51;;;;;;;37.75;20.83;;;-0.90;3.70;;;;;;7398132;19;20014;-75
2022/12/12 01:19:21;;;;;;;39.97;19.95;;;-0.90;4.30;;;;;;7395709;19;20021;-76
2022/12/12 01:21:51;;;;;;;38.10;19.63;;;-1.00;3.70;;;;;;7398198;19;20018;-75
2022/12/12 01:24:23;;;;;;;37.35;19.83;;;-0.90;3.80;;;;;;7395969;19;20014;-75
2022/12/12 01:26:53;;;;;;;40.63;18.67;;;-1.00;2.50;;;;;;7396572;19;20529;-75
2022/12/12 01:29:23;;;;;;;36.20;19.10;;;-1.00;2.60;;;;;;7397321;19;20006;-75
2022/12/12 01:31:53;;;;;;;33.55;17.73;;;-1.00;1.70;;;;;;7397027;19;20007;-75
2022/12/12 01:34:23;;;;;;;35.05;18.35;;;-1.10;1.00;;;;;;7399265;19;20086;-75
2022/12/12 01:36:52;;;;;;;40.35;20.40;;;-1.00;1.50;;;;;;7396970;19;20092;-76
2022/12/12 01:39:25;;;;;;;36.15;19.80;;;-1.10;1.50;;;;;;7396012;19;20095;-75
2022/12/12 01:41:55;;;;;;;38.85;18.67;;;-1.10;2.30;;;;;;7398933;19;20014;-75
2022/12/12 01:44:45;;;;;;;36.55;19.13;;;-1.10;2.40;;;;;;7399371;19;20006;-75
2022/12/12 01:47:16;;;;;;;37.13;18.55;;;-1.10;2.30;;;;;;7397983;19;20275;-75
2022/12/12 01:49:51;;;;;;;37.22;18.33;;;-1.10;1.20;;;;;;7397427;19;20006;-76
2022/12/12 01:52:23;;;;;;;37.03;18.05;;;-1.10;1.00;;;;;;7396678;19;20013;-75
2022/12/12 01:55:00;;;;;;;30.63;16.95;;;-1.20;1.00;;;;;;7399208;19;20354;-75
2022/12/12 01:57:33;;;;;;;33.78;17.80;;;-1.30;1.00;;;;;;7396558;19;20473;-76
2022/12/12 02:00:07;;;;;;;30.10;16.92;;;-1.30;1.00;;;;;;7397846;19;20415;-75
2022/12/12 02:02:38;;;;;;;38.13;18.20;;;-1.40;1.20;;;;;;7427822;19;20014;-75
2022/12/12 02:05:18;;;;;;;34.42;17.10;;;-1.50;1.20;;;;;;7424012;19;20031;-76
2022/12/12 02:07:48;;;;;;;39.28;19.25;;;-1.60;1.20;;;;;;7415494;19;20521;-73
2022/12/12 02:10:21;;;;;;;35.88;18.00;;;-1.60;1.20;;;;;;7405136;19;20079;-73
2022/12/12 02:12:57;;;;;;;32.97;16.90;;;-1.70;1.90;;;;;;7402082;19;20023;-74
2022/12/12 02:15:29;;;;;;;33.85;16.42;;;-1.70;1.90;;;;;;7398032;19;20010;-75
2022/12/12 02:18:08;;;;;;;34.42;16.10;;;-1.70;2.50;;;;;;7398563;19;20351;-75
2022/12/12 02:20:58;;;;;;;33.85;18.00;;;-1.80;3.00;;;;;;7397670;19;20003;-76
2022/12/12 02:23:58;;;;;;;34.58;18.20;;;-1.80;3.10;;;;;;7396866;19;20070;-75
2022/12/12 02:27:02;;;;;;;32.33;17.00;;;-1.80;2.90;;;;;;7396207;19;20027;-76
2022/12/12 02:30:02;;;;;;;34.83;18.38;;;-1.80;3.60;;;;;;7394824;19;20350;-76
2022/12/12 02:32:56;;;;;;;35.03;18.75;;;-1.90;3.90;;;;;;7395287;19;20055;-73
2022/12/12 02:35:34;;;;;;;34.87;17.50;;;-1.90;4.60;;;;;;7395336;19;20070;-76
2022/12/12 02:38:12;;;;;;;34.22;17.90;;;-2.00;4.60;;;;;;7396272;19;20031;-75
2022/12/12 02:40:52;;;;;;;34.45;17.98;;;-2.00;5.30;;;;;;7395747;19;20031;-75
2022/12/12 02:43:32;;;;;;;38.20;18.92;;;-2.00;5.30;;;;;;7395373;19;20098;-76
2022/12/12 02:46:06;;;;;;;40.20;21.40;;;-2.10;6.20;;;;;;7396148;19;20038;-77
2022/12/12 02:48:44;;;;;;;39.13;19.92;;;-2.10;7.20;;;;;;7394392;19;20014;-75
2022/12/12 02:51:17;;;;;;;37.30;19.83;;;-2.10;7.20;;;;;;7396381;19;20107;-75
2022/12/12 02:53:47;;;;;;;35.15;19.77;;;-2.20;7.70;;;;;;7395454;19;20502;-76
2022/12/12 02:56:43;;;;;;;36.92;18.38;;;-2.20;8.00;;;;;;7395892;19;20034;-76
2022/12/12 02:59:17;;;;;;;40.67;18.95;;;-2.20;8.00;;;;;;7394836;19;20018;-75
2022/12/12 03:02:00;;;;;;;39.25;20.33;;;-2.30;7.90;;;;;;7395818;19;20034;-75
2022/12/12 03:10:41;;;;;;;41.78;21.17;;;-2.40;9.30;;;;;;7390175;19;20014;-75
2022/12/12 03:13:16;;;;;;;39.90;20.70;;;-2.40;9.10;;;;;;7393146;19;20025;-75
2022/12/12 03:15:55;;;;;;;43.60;22.15;;;-2.50;10.30;;;;;;7395689;19;20006;-75
2022/12/12 03:18:33;;;;;;;43.50;22.65;;;-2.50;11.40;;;;;;7392836;19;20458;-76
2022/12/12 03:21:09;;;;;;;43.25;21.98;;;-2.40;11.40;;;;;;7395488;19;20010;-76
2022/12/12 03:23:43;;;;;;;43.65;23.05;;;-2.40;11.40;;;;;;7393320;19;20135;-76
2022/12/12 03:26:18;;;;;;;44.63;23.07;;;-2.50;11.00;;;;;;7396042;19;20010;-76
2022/12/12 03:28:53;;;;;;;44.85;23.13;;;-2.50;11.30;;;;;;7393037;19;20017;-76
2022/12/12 03:31:30;;;;;;;43.85;22.05;;;-2.50;11.30;;;;;;7394145;19;20074;-76
2022/12/12 03:34:03;;;;;;;44.60;22.77;;;-2.50;12.20;;;;;;7392289;19;20022;-75
2022/12/12 03:36:41;;;;;;;47.15;22.60;;;-2.60;12.10;;;;;;7393532;19;20014;-76
2022/12/12 03:39:15;;;;;;;45.90;24.63;;;-2.50;12.90;;;;;;7392876;19;20018;-75
2022/12/12 03:41:50;;;;;;;46.97;23.77;;;-2.50;12.90;;;;;;7393710;19;20010;-75
2022/12/12 03:44:24;;;;;;;44.15;23.38;;;-2.50;13.00;;;;;;7393532;19;20002;-76
2022/12/12 03:46:58;;;;;;;50.80;24.67;;;-2.50;13.20;;;;;;7393713;19;20043;-76
2022/12/12 03:49:34;;;;;;;48.75;24.92;;;-2.50;13.40;;;;;;7391676;19;20291;-76
2022/12/12 03:52:11;;;;;;;47.50;24.58;;;-2.50;13.80;;;;;;7393692;19;20014;-75
2022/12/12 03:54:48;;;;;;;48.03;24.80;;;-2.40;14.20;;;;;;7391593;19;20020;-76
2022/12/12 03:57:23;;;;;;;45.53;24.60;;;-2.40;14.30;;;;;;7392685;19;20013;-76
2022/12/12 03:59:56;;;;;;;48.03;24.25;;;-2.30;14.80;;;;;;7391080;19;20006;-76
2022/12/12 04:02:34;;;;;;;48.05;23.80;;;-2.40;14.70;;;;;;7392673;19;20082;-76
2022/12/12 04:05:12;;;;;;;43.80;23.58;;;-2.30;15.00;;;;;;7391903;19;20098;-76
2022/12/12 04:07:50;;;;;;;53.25;25.45;;;-2.30;14.90;;;;;;7392752;19;20013;-75
2022/12/12 04:13:12;;;;;;;48.58;24.42;;;-2.20;15.00;;;;;;7391910;19;20470;-76
2022/12/12 04:16:01;;;;;;;48.13;24.40;;;-2.10;15.10;;;;;;7393517;19;20022;-76
2022/12/12 04:18:38;;;;;;;48.00;24.38;;;-2.10;15.10;;;;;;7390977;19;20014;-76
2022/12/12 04:24:11;;;;;;;53.55;26.48;;;-2.00;15.10;;;;;;7397134;19;20484;-76
2022/12/12 04:26:45;;;;;;;48.45;23.98;;;-2.00;14.30;;;;;;7400147;19;20002;-76
2022/12/12 04:29:26;;;;;;;;;;;-1.90;15.20;;;;;;7399170;19;20489;-75
2022/12/12 04:32:00;;;;;;;47.92;24.30;;;-1.90;14.40;;;;;;7398722;19;19917;-75
2022/12/12 04:34:39;;;;;;;48.60;25.10;;;-2.00;12.70;;;;;;7397300;19;20021;-75
2022/12/12 04:37:12;;;;;;;47.45;24.92;;;-2.00;13.50;;;;;;7400547;19;20046;-75
2022/12/12 04:39:46;;;;;;;45.65;23.83;;;-2.00;13.00;;;;;;7396968;19;20015;-75
2022/12/12 04:42:20;;;;;;;45.60;23.83;;;-1.90;13.10;;;;;;7400579;19;20010;-75
2022/12/12 04:44:53;;;;;;;46.58;23.25;;;-1.90;12.60;;;;;;7399373;19;20482;-75
2022/12/12 04:47:25;;;;;;;47.83;24.90;;;-1.90;11.80;;;;;;7397742;19;20078;-76
2022/12/12 04:49:56;;;;;;;44.72;22.65;;;-1.80;11.80;;;;;;7395393;19;20010;-75
2022/12/12 04:52:27;;;;;;;42.72;22.15;;;-1.80;11.40;;;;;;7398673;19;20010;-75
2022/12/12 04:55:05;;;;;;;42.03;21.88;;;-1.80;9.50;;;;;;7400084;19;20007;-76
2022/12/12 04:57:40;;;;;;;42.33;21.40;;;-1.70;9.50;;;;;;7398828;19;20038;-76
2022/12/12 05:00:13;;;;;;;40.15;21.60;;;-1.70;8.70;;;;;;7396506;19;20058;-76
2022/12/12 05:02:51;;;;;;;42.50;20.95;;;-1.60;8.40;;;;;;7399332;19;20006;-75
2022/12/12 05:05:26;;;;;;;42.55;20.50;;;-1.70;7.90;;;;;;7397493;19;20007;-75
2022/12/12 05:08:02;;;;;;;38.88;20.02;;;-1.70;7.30;;;;;;7397929;19;20480;-75
2022/12/12 05:10:34;;;;;;;35.92;19.63;;;-1.70;6.80;;;;;;7398932;19;20014;-75
2022/12/12 05:13:04;;;;;;;39.15;20.35;;;-1.70;6.60;;;;;;7399678;19;20006;-75
2022/12/12 05:15:34;;;;;;;41.60;21.25;;;-1.80;6.90;;;;;;7399338;19;20025;-75
2022/12/12 05:18:12;;;;;;;39.88;20.42;;;-1.80;7.80;;;;;;7398690;19;20014;-76
2022/12/12 05:20:42;;;;;;;38.50;20.35;;;-1.90;7.50;;;;;;7400130;19;20465;-75
2022/12/12 05:23:12;;;;;;;38.72;20.00;;;-1.90;8.20;;;;;;7428952;19;20033;-74
2022/12/12 05:25:44;;;;;;;36.97;17.92;;;-1.90;7.90;;;;;;7424479;19;20014;-75
2022/12/12 05:28:14;;;;;;;39.53;20.40;;;-2.00;8.10;;;;;;7412498;19;20010;-73
2022/12/12 05:30:44;;;;;;;38.35;20.15;;;-2.10;6.90;;;;;;7400102;19;20018;-73
2022/12/12 05:33:14;;;;;;;42.28;20.75;;;-2.10;8.10;;;;;;7397724;19;20017;-75
2022/12/12 05:35:43;;;;;;;40.65;20.85;;;-2.10;7.80;;;;;;7398042;19;20466;-76
2022/12/12 05:38:13;;;;;;;43.92;20.90;;;-2.10;8.60;;;;;;7398907;19;20029;-76
2022/12/12 05:40:46;;;;;;;39.95;20.65;;;-2.10;8.30;;;;;;7397194;19;20014;-76
2022/12/12 05:43:15;;;;;;;39.42;20.30;;;-2.10;8.00;;;;;;7398749;19;20017;-77
2022/12/12 05:45:45;;;;;;;42.40;20.75;;;-2.00;8.10;;;;;;7397892;19;20003;-76
2022/12/12 05:48:15;;;;;;;35.42;19.85;;;-2.10;8.10;;;;;;7397704;19;20015;-76
2022/12/12 05:50:52;;;;;;;40.33;20.88;;;-2.10;8.60;;;;;;7397088;19;20010;-75
2022/12/12 05:53:23;;;;;;;43.83;21.50;;;-1.90;8.20;;;;;;7395677;19;20488;-75
2022/12/12 05:55:55;;;;;;;39.63;20.92;;;-1.90;7.80;;;;;;7396852;19;20478;-75
2022/12/12 05:58:25;;;;;;;40.58;20.73;;;-1.80;7.40;;;;;;7395915;19;20035;-76
2022/12/12 06:00:55;;;;;;;41.35;20.77;;;-1.80;6.80;;;;;;7396764;19;20011;-75
2022/12/12 06:03:32;;;;;;;45.03;21.98;;;-1.80;6.80;;;;;;7396796;19;20017;-77
2022/12/12 06:06:02;;;;;;;46.80;21.90;;;-1.90;6.30;;;;;;7396985;19;20010;-76
2022/12/12 06:08:32;;;;;;;37.63;20.95;;;-1.80;6.40;;;;;;7395390;19;20024;-75
2022/12/12 06:11:06;;;;;;;43.65;20.75;;;-1.80;5.90;;;;;;7396435;19;20474;-76
2022/12/12 06:13:36;;;;;;;39.30;20.92;;;-2.00;4.80;;;;;;7393906;19;20026;-76
2022/12/12 06:16:10;;;;;;;41.13;20.77;;;-1.90;6.70;;;;;;7396614;19;20006;-76
2022/12/12 06:18:40;;;;;;;44.83;20.88;;;-1.90;6.40;;;;;;7393125;19;20037;-75
2022/12/12 06:21:12;;;;;;;37.75;19.88;;;-1.90;5.50;;;;;;7396698;19;20074;-76
2022/12/12 06:23:44;;;;;;;38.42;19.40;;;-1.90;5.50;;;;;;7395984;19;20014;-75
2022/12/12 06:26:18;;;;;;;42.00;20.95;;;-2.00;5.80;;;;;;7394933;19;20018;-75
2022/12/12 06:28:49;;;;;;;38.92;19.92;;;-1.90;6.40;;;;;;7394065;19;20018;-75
2022/12/12 06:31:19;;;;;;;39.70;20.60;;;-2.00;4.70;;;;;;7395185;19;20455;-77
2022/12/12 06:33:49;;;;;;;41.10;20.45;;;-2.00;6.70;;;;;;7395570;19;20010;-76
2022/12/12 06:36:22;;;;;;;40.63;19.90;;;-2.00;5.90;;;;;;7395364;19;20009;-75
2022/12/12 06:38:53;;;;;;;40.13;21.45;;;-2.00;5.70;;;;;;7394309;19;20466;-76
2022/12/12 06:41:27;;;;;;;44.25;21.77;;;-1.90;5.90;;;;;;7392415;19;20494;-77
2022/12/12 06:43:57;;;;;;;43.47;20.63;;;-1.80;5.80;;;;;;7395706;19;20014;-76
2022/12/12 06:46:29;;;;;;;36.72;19.60;;;-1.90;5.10;;;;;;7393852;19;20006;-75
2022/12/12 06:49:00;;;;;;;41.20;21.38;;;-1.90;4.70;;;;;;7394016;19;20021;-75
2022/12/12 06:51:32;;;;;;;44.78;22.83;;;-1.90;5.90;;;;;;7395448;19;20003;-75
2022/12/12 06:54:02;;;;;;;40.13;20.73;;;-1.80;6.20;;;;;;7394562;19;20011;-77
2022/12/12 06:56:34;;;;;;;43.83;21.65;;;-1.80;6.10;;;;;;7395142;19;20129;-75
2022/12/12 06:59:04;;;;;;;40.70;21.30;;;-1.80;6.40;;;;;;7394067;19;20077;-75
2022/12/12 07:01:35;;;;;;;44.88;21.63;;;-1.90;6.80;;;;;;7393480;19;20533;-77
2022/12/12 07:04:04;;;;;;;40.80;21.02;;;-1.90;5.90;;;;;;7394923;19;20014;-76
2022/12/12 07:06:34;;;;;;;38.22;20.85;;;-1.90;6.40;;;;;;7393461;19;20046;-77
2022/12/12 07:09:04;;;;;;;38.47;19.90;;;-1.80;6.50;;;;;;7392579;19;20054;-77
2022/12/12 07:11:37;;;;;;;40.35;21.60;;;-1.80;5.60;;;;;;7394007;19;20030;-77
2022/12/12 07:14:07;;;;;;;44.28;21.25;;;-1.80;4.70;;;;;;7395034;19;20010;-76
2022/12/12 07:16:37;;;;;;;42.58;21.73;;;-1.80;4.60;;;;;;7392051;19;20031;-75
2022/12/12 07:19:07;;;;;;;40.05;21.27;;;-1.70;4.90;;;;;;7392914;19;20455;-76
2022/12/12 07:21:36;;;;;;;39.97;21.75;;;-1.70;4.70;;;;;;7393529;19;20019;-76
2022/12/12 07:24:07;;;;;;;43.80;22.40;;;-1.80;4.70;;;;;;7394194;19;20009;-76
2022/12/12 07:26:39;;;;;;;44.28;23.08;;;-1.70;4.70;;;;;;7391544;19;20525;-76
2022/12/12 07:29:09;;;;;;;43.70;22.38;;;-1.70;4.70;;;;;;7392437;19;20014;-77
2022/12/12 07:31:39;;;;;;;39.97;21.75;;;-1.70;4.70;;;;;;7393379;19;20070;-77
2022/12/12 07:34:09;;;;;;;41.90;21.90;;;-1.70;4.40;;;;;;7393678;19;20014;-76
2022/12/12 07:36:38;;;;;;;42.40;22.23;;;-1.60;4.20;;;;;;7392640;19;20076;-76
2022/12/12 07:39:08;;;;;;;43.13;21.70;;;-1.60;3.10;;;;;;7392489;19;20010;-76
2022/12/12 07:41:41;;;;;;;41.40;22.33;;;-1.70;3.30;;;;;;7392601;19;20011;-76
2022/12/12 07:44:11;;;;;;;40.65;22.15;;;-1.60;3.50;;;;;;7393311;19;20017;-76
2022/12/12 07:46:40;;;;;;;39.95;21.23;;;-1.60;4.50;;;;;;7390823;19;20030;-76
2022/12/12 07:49:10;;;;;;;41.92;21.75;;;-1.60;3.70;;;;;;7391467;19;20019;-76
2022/12/12 07:51:40;;;;;;;41.75;21.60;;;-1.60;4.80;;;;;;7392805;19;20084;-76
2022/12/12 07:54:17;;;;;;;41.85;22.50;;;-1.60;3.60;;;;;;7392587;19;20011;-75
2022/12/12 07:56:49;;;;;;;42.25;23.20;;;-1.60;4.20;;;;;;7392785;19;20013;-77
2022/12/12 07:59:19;;;;;;;39.05;20.92;;;-1.60;4.20;;;;;;7390407;19;20382;-77
2022/12/12 08:01:49;;;;;;;39.33;22.98;;;-1.60;2.30;;;;;;7392022;19;20391;-76
2022/12/12 08:04:19;;;;;;;43.75;23.00;;;-1.60;2.70;;;;;;7393506;19;20030;-76
2022/12/12 08:06:49;;;;;;;45.97;22.02;;;-1.60;3.50;;;;;;7392654;19;20038;-75
2022/12/12 08:09:29;;;;;;;45.22;22.98;;;-1.50;3.30;;;;;;7390174;19;20078;-76
2022/12/12 08:12:01;;;;;;;40.78;21.88;;;-1.50;3.00;;;;;;7391583;19;20074;-76
2022/12/12 08:14:32;;;;;;;41.08;21.40;;;-1.50;1.90;;;;;;7392257;19;20082;-76
2022/12/12 08:17:01;;;;;;;40.58;22.13;;;-1.40;2.90;;;;;;7392754;19;20003;-76
2022/12/12 08:19:31;;;;;;;41.03;23.00;;;-1.40;1.20;;;;;;7389269;19;20027;-76
2022/12/12 08:22:01;;;;;;;42.10;21.75;;;-1.40;2.30;;;;;;7389723;19;20025;-76
2022/12/12 08:24:31;;;;;;;39.35;21.27;;;-1.30;1.30;;;;;;7387846;19;20473;-75
2022/12/12 08:27:04;;;;;;;44.95;22.35;;;-1.30;1.00;;;;;;7386130;19;20017;-75
2022/12/12 08:29:33;;;;;;;41.45;21.92;;;-1.20;1.60;;;;;;7387247;19;20009;-75
2022/12/12 08:32:03;;;;;;;42.67;21.48;;;-1.10;1.50;;;;;;7389674;19;20127;-74
2022/12/12 08:34:33;;;;;;;44.35;22.45;;;-1.20;1.00;;;;;;7389412;19;20022;-75
2022/12/12 08:37:03;;;;;;;42.67;22.25;;;-1.10;1.00;;;;;;7387351;19;20017;-76
2022/12/12 08:39:33;;;;;;;39.92;20.98;;;-1.20;1.00;;;;;;7389771;19;20015;-76
2022/12/12 08:42:06;;;;;;;42.80;21.83;;;-1.10;1.00;;;;;;7391006;19;20415;-75
2022/12/12 08:44:35;;;;;;;39.35;21.60;;;-1.10;1.00;;;;;;7391264;19;20021;-75
2022/12/12 08:47:06;;;;;;;43.25;22.67;;;-1.10;1.00;;;;;;7391031;19;20010;-75
2022/12/12 08:49:36;;;;;;;51.78;22.77;;;-0.90;1.00;;;;;;7388591;19;20035;-75
2022/12/12 08:52:08;;;;;;;42.78;21.40;;;-0.80;1.00;;;;;;7390738;19;20015;-75
2022/12/12 08:54:39;;;;;;;38.25;21.85;;;-0.90;1.00;;;;;;7391324;19;20013;-75
2022/12/12 08:57:12;;;;;;;36.40;20.33;;;-1.00;1.00;;;;;;7389953;19;20014;-75
2022/12/12 08:59:41;;;;;;;39.75;20.67;;;-1.20;1.00;;;;;;7388224;19;20086;-74
2022/12/12 09:02:13;;;;;;;40.80;21.30;;;-1.10;1.00;;;;;;7378251;19;20034;-75
2022/12/12 09:04:43;;;;;;;43.63;21.75;;;-1.00;1.00;;;;;;7383147;19;20379;-75
2022/12/12 09:07:13;;;;;;;42.33;21.45;;;-0.90;1.00;;;;;;7385338;19;20017;-76
2022/12/12 09:09:43;;;;;;;39.92;20.40;;;-0.80;1.00;;;;;;7382880;19;20027;-77
2022/12/12 09:12:15;;;;;;;40.50;21.48;;;-0.90;1.00;;;;;;7389056;19;20042;-75
2022/12/12 09:14:45;;;;;;;89.00;46.92;;;-0.80;1.00;;;;;;7390331;19;20338;-75
2022/12/12 09:17:15;;;;;;;44.72;21.90;;;-0.60;1.00;;;;;;7389651;19;20038;-74
2022/12/12 09:19:45;;;;;;;41.33;21.63;;;-0.70;1.00;;;;;;7388613;19;20462;-75
2022/12/12 09:22:16;;;;;;;36.25;19.10;;;-0.70;1.00;;;;;;7355768;19;20528;-76
2022/12/12 09:24:46;;;;;;;40.47;21.48;;;-1.10;1.00;;;;;;7351300;19;20090;-76
2022/12/12 09:27:18;;;;;;;41.92;21.25;;;-1.00;1.00;;;;;;7366435;19;20046;-74
2022/12/12 09:29:48;;;;;;;40.53;20.33;;;-0.70;1.00;;;;;;7362926;19;20139;-75
2022/12/12 09:32:18;;;;;;;41.55;20.50;;;-0.70;1.00;;;;;;7362982;19;20015;-74
2022/12/12 09:34:53;;;;;;;41.60;20.95;;;-0.80;1.00;;;;;;7386043;19;20021;-74
2022/12/12 09:37:23;;;;;;;38.88;21.00;;;-0.80;1.00;;;;;;7365508;19;20014;-75
2022/12/12 09:39:53;;;;;;;36.90;20.38;;;-0.90;1.00;;;;;;7361903;19;20365;-75
2022/12/12 09:42:29;;;;;;;39.72;21.00;;;-0.70;1.00;;;;;;7358986;19;20388;-75
2022/12/12 09:45:01;;;;;;;38.13;19.63;;;-0.90;1.00;;;;;;7369410;19;20006;-75
2022/12/12 09:47:37;;;;;;;37.13;20.80;;;-0.90;1.00;;;;;;7370040;19;20020;-74
2022/12/12 09:50:16;;;;;;;36.30;20.63;;;-0.80;1.00;;;;;;7365737;19;20016;-74
2022/12/12 09:52:46;;;;;;;38.72;21.23;;;-0.90;1.00;;;;;;7383738;19;20022;-75
2022/12/12 09:55:35;;;;;;;36.30;20.35;;;-0.80;1.00;;;;;;7367695;19;20034;-75
2022/12/12 09:58:18;;;;;;;41.00;21.45;;;-0.90;1.00;;;;;;7368871;19;20002;-75
2022/12/12 10:00:53;;;;;;;35.63;18.95;;;-1.00;1.00;;;;;;7367219;19;20074;-75
2022/12/12 10:03:34;;;;;;;38.72;20.55;;;-1.00;1.00;;;;;;7361886;19;20011;-74
2022/12/12 10:06:07;;;;;;;40.33;20.95;;;-1.00;1.00;;;;;;7367221;19;20022;-75
2022/12/12 10:09:10;;;;;;;43.70;21.95;;;-0.90;1.00;;;;;;7366325;19;20014;-75
2022/12/12 10:11:53;;;;;;;40.20;20.83;;;-0.90;1.00;;;;;;7364142;19;20014;-75
2022/12/12 10:14:29;;;;;;;37.40;20.60;;;-0.80;1.00;;;;;;7367297;19;20006;-74
2022/12/12 10:17:00;;;;;;;38.65;21.33;;;-0.60;1.00;;;;;;7380775;19;20010;-75
2022/12/12 10:19:34;;;;;;;44.65;21.60;;;-0.70;1.00;;;;;;7386342;19;20453;-75
2022/12/12 10:22:09;;;;;;;43.13;22.25;;;-0.80;1.00;;;;;;7358997;19;20011;-75
2022/12/12 10:24:45;;;;;;;38.28;20.95;;;-0.60;1.00;;;;;;7367461;19;20010;-75
2022/12/12 10:27:16;;;;;;;41.55;22.00;;;-0.50;1.00;;;;;;7367777;19;20006;-75
2022/12/12 10:29:50;;;;;;;43.08;21.98;;;-0.30;1.00;;;;;;7363789;19;20013;-74
2022/12/12 10:32:37;;;;;;;44.13;22.15;;;-0.30;1.00;;;;;;7360927;19;20398;-73
2022/12/12 10:35:18;;;;;;;39.75;21.58;;;-0.20;1.00;;;;;;7367686;19;20010;-75
2022/12/12 10:38:07;;;;;;;42.05;22.52;;;-0.10;1.00;;;;;;7387490;19;20011;-75
2022/12/12 10:40:51;;;;;;;41.70;21.17;;;-0.20;1.00;;;;;;7366644;19;20029;-75
2022/12/12 10:43:24;;;;;;;55.50;27.67;;;-0.10;1.00;;;;;;7361763;19;20025;-75
2022/12/12 10:46:19;;;;;;;39.35;21.38;;;0.00;1.00;;;;;;7366218;19;20010;-75
2022/12/12 10:48:50;;;;;;;40.67;21.38;;;0.00;1.00;;;;;;7364081;19;20011;-75
2022/12/12 10:51:23;;;;;;;49.17;21.65;;;-0.10;1.00;;;;;;7367736;19;20116;-76
2022/12/12 10:53:52;;;;;;;44.97;22.58;;;-0.20;1.00;;;;;;7361192;19;20010;-74
2022/12/12 10:56:24;;;;;;;38.47;22.15;;;-0.20;1.00;;;;;;7365402;19;20089;-75
2022/12/12 10:58:56;;;;;;;39.83;21.08;;;-0.30;1.00;;;;;;7387210;19;20450;-75
2022/12/12 11:01:33;;;;;;;40.40;21.23;;;-0.40;1.00;;;;;;7366999;19;20006;-75
2022/12/12 11:04:23;;;;;;;48.28;22.83;;;-0.40;1.00;;;;;;7366387;19;20021;-74
2022/12/12 11:06:54;;;;;;;43.63;21.65;;;-0.30;1.00;;;;;;7365462;19;20010;-74
2022/12/12 11:09:27;;;;;;;43.22;22.83;;;-0.30;1.00;;;;;;7363297;19;20010;-72
2022/12/12 11:12:02;;;;;;;41.42;21.38;;;-0.20;1.00;;;;;;7360385;19;20220;-74
2022/12/12 11:14:36;;;;;;;39.78;22.73;;;-0.20;1.00;;;;;;7365286;19;20338;-74
2022/12/12 11:17:22;;;;;;;41.63;22.10;;;-0.30;1.00;;;;;;7365256;19;20015;-76
2022/12/12 11:19:54;;;;;;;36.58;21.55;;;-0.30;1.00;;;;;;7384706;19;20025;-74
2022/12/12 11:22:25;;;;;;;50.63;21.70;;;-0.30;1.00;;;;;;7360320;19;20070;-76
2022/12/12 11:24:55;;;;;;;39.05;21.70;;;-0.30;1.00;;;;;;7364890;19;20003;-76
2022/12/12 11:27:29;;;;;;;40.58;21.35;;;-0.20;1.00;;;;;;7364813;19;20027;-75
2022/12/12 11:30:01;;;;;;;38.40;21.60;;;-0.10;1.00;;;;;;7363852;19;20010;-75
2022/12/12 11:32:41;;;;;;;42.55;22.23;;;-0.10;1.00;;;;;;7359761;19;20002;-73
2022/12/12 11:35:27;;;;;;;39.83;20.35;;;0.00;1.00;;;;;;7365281;19;20010;-74
2022/12/12 11:38:02;;;;;;;41.83;21.13;;;-0.10;1.00;;;;;;7386619;19;20007;-74
2022/12/12 11:40:33;;;;;;;;;;;-0.20;1.00;;;;;;7365481;19;20338;-75
2022/12/12 11:43:19;;;;;;;36.83;20.65;;;-0.10;1.00;;;;;;7357234;19;19914;-74
2022/12/12 11:46:04;;;;;;;45.10;21.50;;;0.10;1.00;;;;;;7366114;19;20101;-74
2022/12/12 11:48:41;;;;;;;41.33;22.00;;;0.10;1.00;;;;;;7364019;19;20070;-74
2022/12/12 11:51:12;;;;;;;43.30;23.08;;;0.20;1.00;;;;;;7365378;19;20014;-74
2022/12/12 11:53:46;;;;;;;41.20;22.98;;;0.20;1.00;;;;;;7357403;19;20014;-74
2022/12/12 11:56:31;;;;;;;41.95;23.17;;;0.10;1.00;;;;;;7365640;19;20079;-74
2022/12/12 11:59:16;;;;;;;45.58;23.63;;;0.00;1.00;;;;;;7363344;19;20023;-74
2022/12/12 12:01:56;;;;;;;43.42;23.23;;;0.10;1.00;;;;;;7380492;19;20514;-75
2022/12/12 12:04:48;;;;;;;45.83;22.52;;;0.00;1.00;;;;;;7364354;19;20015;-73
2022/12/12 12:07:47;;;;;;;42.65;23.25;;;0.00;1.00;;;;;;7365097;19;20369;-75
2022/12/12 12:10:25;;;;;;;41.05;22.73;;;-0.20;1.00;;;;;;7361192;19;20030;-73
2022/12/12 12:13:09;;;;;;;43.47;23.17;;;-0.20;1.00;;;;;;7355032;19;20064;-74
2022/12/12 12:15:47;;;;;;;43.67;22.55;;;-0.20;1.00;;;;;;7364168;19;20017;-75
2022/12/12 12:18:35;;;;;;;46.45;24.02;;;-0.10;1.00;;;;;;7364970;19;20003;-74
2022/12/12 12:21:24;;;;;;;40.38;22.30;;;-0.10;1.00;;;;;;7363668;19;20474;-75
2022/12/12 12:24:20;;;;;;;44.45;23.48;;;-0.20;1.00;;;;;;7356513;19;20002;-74
2022/12/12 12:27:03;;;;;;;50.65;24.60;;;-0.20;1.00;;;;;;7364874;19;20002;-75
2022/12/12 12:30:05;;;;;;;44.97;22.33;;;-0.10;1.00;;;;;;7362781;19;20027;-74
2022/12/12 12:32:50;;;;;;;44.40;23.50;;;-0.10;1.00;;;;;;7358215;19;20013;-74
2022/12/12 12:35:26;;;;;;;;;;;-0.10;1.00;;;;;;7366608;19;20055;-74
2022/12/12 12:38:12;;;;;;;42.47;23.02;;;-0.10;1.00;;;;;;7384077;19;19923;-74
2022/12/12 12:40:58;;;;;;;41.38;22.33;;;-0.30;1.00;;;;;;7363969;19;20018;-74
2022/12/12 12:43:42;;;;;;;36.72;21.50;;;-0.30;1.00;;;;;;7354758;19;20070;-74
2022/12/12 12:46:16;;;;;;;38.60;22.33;;;-0.20;1.00;;;;;;7371158;19;20405;-74
2022/12/12 12:48:49;;;;;;;;;;;-0.20;1.00;;;;;;7369687;19;20422;-74
2022/12/12 12:51:23;;;;;;;40.30;20.92;;;-0.20;1.00;;;;;;7371982;19;19911;-74
2022/12/12 12:54:01;;;;;;;39.28;20.85;;;-0.20;1.00;;;;;;7357048;19;20014;-74
2022/12/12 12:56:34;;;;;;;39.17;21.60;;;-0.20;1.00;;;;;;7366264;19;20359;-75
2022/12/12 12:59:16;;;;;;;45.40;22.50;;;-0.10;1.00;;;;;;7367175;19;20007;-74
2022/12/12 13:01:49;;;;;;;36.95;21.17;;;-0.10;1.00;;;;;;7386651;19;20070;-75
2022/12/12 13:04:24;;;;;;;39.30;21.17;;;-0.10;1.00;;;;;;7366621;19;20006;-75
2022/12/12 13:06:58;;;;;;;42.65;21.23;;;-0.10;1.00;;;;;;7367449;19;20014;-74
2022/12/12 13:09:39;;;;;;;37.08;21.85;;;-0.10;1.00;;;;;;7363704;19;20010;-74
2022/12/12 13:12:16;;;;;;;43.67;22.00;;;-0.10;1.00;;;;;;7363017;19;20011;-73
2022/12/12 13:14:53;;;;;;;42.53;20.48;;;0.00;1.00;;;;;;7365737;19;20010;-75
2022/12/12 13:17:28;;;;;;;36.83;20.80;;;0.00;1.00;;;;;;7365191;19;20022;-74
2022/12/12 13:19:59;;;;;;;40.13;20.58;;;-0.10;1.00;;;;;;7388085;19;20014;-74
2022/12/12 13:22:34;;;;;;;40.15;20.83;;;0.00;1.00;;;;;;7358858;19;20488;-73
2022/12/12 13:25:15;;;;;;;34.15;18.67;;;0.00;1.00;;;;;;7366838;19;20010;-75
2022/12/12 13:27:50;;;;;;;36.47;19.73;;;-0.10;1.00;;;;;;7369344;19;20014;-75